sensor_id;sensor_type;location;lat;lon;timestamp;pressure;altitude;pressure_sealevel;temperature;humidity
48027;BME280;50714;49.208;5.364;2022-11-20T00:07:08;99047.13;;;8.76;89.16
48027;BME280;50714;49.208;5.364;2022-11-20T00:17:08;99036.59;;;8.81;89.26
48027;BME280;50714;49.208;5.364;2022-11-20T00:27:09;99041.56;;;8.84;89.27
48027;BME280;50714;49.208;5.364;2022-11-20T00:37:09;99039.28;;;8.81;88.76
48027;BME280;50714;49.208;5.364;2022-11-20T00:47:09;99035.97;;;8.79;88.84
48027;BME280;50714;49.208;5.364;2022-11-20T00:57:10;99037.00;;;8.78;88.81
48027;BME280;50714;49.208;5.364;2022-11-20T01:07:10;99041.38;;;8.85;89.20
48027;BME280;50714;49.208;5.364;2022-11-20T01:17:11;99047.38;;;8.81;89.43
48027;BME280;50714;49.208;5.364;2022-11-20T01:27:11;99038.47;;;8.80;89.63
48027;BME280;50714;49.208;5.364;2022-11-20T01:37:12;99034.72;;;8.75;89.46
48027;BME280;50714;49.208;5.364;2022-11-20T01:47:14;99036.16;;;8.77;89.76
48027;BME280;50714;49.208;5.364;2022-11-20T01:57:16;99040.13;;;8.81;90.22
48027;BME280;50714;49.208;5.364;2022-11-20T02:07:19;99043.44;;;8.83;90.25
48027;BME280;50714;49.208;5.364;2022-11-20T02:17:20;99050.88;;;8.81;90.43
48027;BME280;50714;49.208;5.364;2022-11-20T02:27:20;99050.06;;;8.81;90.30
48027;BME280;50714;49.208;5.364;2022-11-20T02:37:23;99043.22;;;8.78;90.68
48027;BME280;50714;49.208;5.364;2022-11-20T02:47:23;99041.75;;;8.76;90.74
48027;BME280;50714;49.208;5.364;2022-11-20T02:57:23;99048.16;;;8.75;90.77
48027;BME280;50714;49.208;5.364;2022-11-20T03:07:24;99037.63;;;8.73;90.35
48027;BME280;50714;49.208;5.364;2022-11-20T03:17:24;99032.25;;;8.73;90.00
48027;BME280;50714;49.208;5.364;2022-11-20T03:27:24;99029.97;;;8.70;89.82
48027;BME280;50714;49.208;5.364;2022-11-20T03:37:25;99034.50;;;8.70;90.19
48027;BME280;50714;49.208;5.364;2022-11-20T03:47:25;99026.84;;;8.67;90.20
48027;BME280;50714;49.208;5.364;2022-11-20T03:57:25;99027.00;;;8.59;90.57
48027;BME280;50714;49.208;5.364;2022-11-20T04:07:26;99030.31;;;8.54;90.44
48027;BME280;50714;49.208;5.364;2022-11-20T04:17:26;99034.03;;;8.53;89.84
48027;BME280;50714;49.208;5.364;2022-11-20T04:27:26;99031.53;;;8.51;89.96
48027;BME280;50714;49.208;5.364;2022-11-20T04:37:27;99037.75;;;8.52;90.21
48027;BME280;50714;49.208;5.364;2022-11-20T04:47:27;99038.56;;;8.52;90.13
48027;BME280;50714;49.208;5.364;2022-11-20T04:57:27;99039.41;;;8.53;90.27
48027;BME280;50714;49.208;5.364;2022-11-20T05:07:28;99032.75;;;8.42;89.22
48027;BME280;50714;49.208;5.364;2022-11-20T05:17:28;99037.47;;;8.34;88.50
48027;BME280;50714;49.208;5.364;2022-11-20T05:27:28;99039.28;;;8.27;88.57
48027;BME280;50714;49.208;5.364;2022-11-20T05:37:29;99033.47;;;8.23;88.48
48027;BME280;50714;49.208;5.364;2022-11-20T05:47:32;99037.50;;;8.06;87.71
48027;BME280;50714;49.208;5.364;2022-11-20T05:57:33;99035.91;;;7.83;88.26
48027;BME280;50714;49.208;5.364;2022-11-20T06:07:33;99049.41;;;7.62;87.34
48027;BME280;50714;49.208;5.364;2022-11-20T06:17:33;99046.00;;;7.47;87.64
48027;BME280;50714;49.208;5.364;2022-11-20T06:27:34;99060.69;;;7.51;88.41
48027;BME280;50714;49.208;5.364;2022-11-20T06:37:34;99063.22;;;7.59;88.84
48027;BME280;50714;49.208;5.364;2022-11-20T06:47:34;99058.31;;;7.63;88.99
48027;BME280;50714;49.208;5.364;2022-11-20T06:57:35;99066.16;;;7.64;88.82
48027;BME280;50714;49.208;5.364;2022-11-20T07:07:35;99082.03;;;7.59;88.40
48027;BME280;50714;49.208;5.364;2022-11-20T07:17:35;99083.31;;;7.63;88.64
48027;BME280;50714;49.208;5.364;2022-11-20T07:27:36;99092.00;;;7.65;87.58
48027;BME280;50714;49.208;5.364;2022-11-20T07:37:36;99088.72;;;7.70;87.75
48027;BME280;50714;49.208;5.364;2022-11-20T07:47:37;99091.66;;;7.75;88.20
48027;BME280;50714;49.208;5.364;2022-11-20T07:57:37;99098.00;;;7.95;87.69
48027;BME280;50714;49.208;5.364;2022-11-20T08:07:42;99112.06;;;8.25;86.07
48027;BME280;50714;49.208;5.364;2022-11-20T08:17:43;99127.03;;;8.34;84.98
48027;BME280;50714;49.208;5.364;2022-11-20T08:27:43;99128.25;;;8.66;85.61
48027;BME280;50714;49.208;5.364;2022-11-20T08:37:47;99124.28;;;9.30;84.77
48027;BME280;50714;49.208;5.364;2022-11-20T08:47:48;99134.72;;;10.25;83.90
48027;BME280;50714;49.208;5.364;2022-11-20T08:57:48;99129.47;;;10.43;79.26
48027;BME280;50714;49.208;5.364;2022-11-20T09:07:48;99111.47;;;9.98;78.19
48027;BME280;50714;49.208;5.364;2022-11-20T09:17:57;99114.81;;;9.67;78.09
48027;BME280;50714;49.208;5.364;2022-11-20T09:27:58;99117.94;;;9.83;78.48
48027;BME280;50714;49.208;5.364;2022-11-20T09:38:06;99112.94;;;10.00;76.97
48027;BME280;50714;49.208;5.364;2022-11-20T09:58:40;99093.97;;;11.36;73.66
48027;BME280;50714;49.208;5.364;2022-11-20T10:08:55;99090.47;;;10.90;73.72
48027;BME280;50714;49.208;5.364;2022-11-20T10:19:30;99081.81;;;10.24;74.14
48027;BME280;50714;49.208;5.364;2022-11-20T10:29:38;99075.38;;;10.32;75.78
48027;BME280;50714;49.208;5.364;2022-11-20T10:40:06;99064.56;;;10.18;74.05
48027;BME280;50714;49.208;5.364;2022-11-20T10:50:19;99065.22;;;10.01;75.18
48027;BME280;50714;49.208;5.364;2022-11-20T11:00:21;99056.31;;;10.20;74.81
48027;BME280;50714;49.208;5.364;2022-11-20T11:10:28;99028.06;;;10.36;75.26
48027;BME280;50714;49.208;5.364;2022-11-20T11:20:30;99004.25;;;10.64;74.18
48027;BME280;50714;49.208;5.364;2022-11-20T11:30:50;98996.72;;;10.73;72.91
48027;BME280;50714;49.208;5.364;2022-11-20T11:40:53;98981.59;;;10.72;73.90
48027;BME280;50714;49.208;5.364;2022-11-20T11:50:54;98965.91;;;10.87;73.51
48027;BME280;50714;49.208;5.364;2022-11-20T12:01:03;98953.38;;;10.68;72.31
48027;BME280;50714;49.208;5.364;2022-11-20T12:22:00;98938.13;;;10.48;72.89
48027;BME280;50714;49.208;5.364;2022-11-20T12:32:36;98916.06;;;10.27;73.17
48027;BME280;50714;49.208;5.364;2022-11-20T13:23:44;98832.66;;;9.87;73.49
48027;BME280;50714;49.208;5.364;2022-11-20T13:33:44;98821.38;;;9.65;73.98
48027;BME280;50714;49.208;5.364;2022-11-20T13:43:49;98817.25;;;9.49;75.32
48027;BME280;50714;49.208;5.364;2022-11-20T14:04:19;98780.72;;;9.15;77.80
48027;BME280;50714;49.208;5.364;2022-11-20T14:14:25;98758.16;;;9.16;78.39
48027;BME280;50714;49.208;5.364;2022-11-20T14:24:26;98759.84;;;9.04;79.38
48027;BME280;50714;49.208;5.364;2022-11-20T14:34:32;98741.69;;;8.80;80.53
48027;BME280;50714;49.208;5.364;2022-11-20T14:44:34;98729.72;;;8.63;81.79
48027;BME280;50714;49.208;5.364;2022-11-20T14:54:43;98709.88;;;8.37;84.32
48027;BME280;50714;49.208;5.364;2022-11-20T15:04:56;98694.75;;;8.30;84.68
48027;BME280;50714;49.208;5.364;2022-11-20T15:14:56;98704.91;;;8.21;85.74
48027;BME280;50714;49.208;5.364;2022-11-20T15:24:57;98706.56;;;8.15;87.20
48027;BME280;50714;49.208;5.364;2022-11-20T15:34:57;98696.03;;;8.14;87.55
48027;BME280;50714;49.208;5.364;2022-11-20T15:44:57;98696.03;;;8.20;87.40
48027;BME280;50714;49.208;5.364;2022-11-20T15:54:58;98695.19;;;8.13;87.71
48027;BME280;50714;49.208;5.364;2022-11-20T16:04:58;98684.44;;;8.13;88.63
48027;BME280;50714;49.208;5.364;2022-11-20T16:14:58;98696.00;;;8.07;88.45
48027;BME280;50714;49.208;5.364;2022-11-20T16:25:17;98697.69;;;8.15;88.47
48027;BME280;50714;49.208;5.364;2022-11-20T16:35:18;98712.56;;;8.17;88.32
48027;BME280;50714;49.208;5.364;2022-11-20T16:45:18;98709.06;;;8.17;88.65
48027;BME280;50714;49.208;5.364;2022-11-20T16:55:18;98700.38;;;8.15;88.63
48027;BME280;50714;49.208;5.364;2022-11-20T17:05:19;98711.94;;;8.22;88.86
48027;BME280;50714;49.208;5.364;2022-11-20T17:15:19;98709.44;;;8.27;89.07
48027;BME280;50714;49.208;5.364;2022-11-20T17:25:19;98710.88;;;8.30;88.80
48027;BME280;50714;49.208;5.364;2022-11-20T17:35:20;98714.03;;;8.40;88.41
48027;BME280;50714;49.208;5.364;2022-11-20T17:45:20;98710.09;;;8.42;88.92
48027;BME280;50714;49.208;5.364;2022-11-20T17:55:21;98712.16;;;8.47;89.27
48027;BME280;50714;49.208;5.364;2022-11-20T18:05:21;98716.50;;;8.48;89.26
48027;BME280;50714;49.208;5.364;2022-11-20T18:15:22;98696.22;;;8.52;88.61
48027;BME280;50714;49.208;5.364;2022-11-20T18:25:23;98707.63;;;8.47;87.89
48027;BME280;50714;49.208;5.364;2022-11-20T18:35:25;98707.22;;;8.44;88.89
48027;BME280;50714;49.208;5.364;2022-11-20T18:45:25;98717.31;;;8.55;88.92
48027;BME280;50714;49.208;5.364;2022-11-20T18:55:26;98718.97;;;8.56;89.20
48027;BME280;50714;49.208;5.364;2022-11-20T19:05:26;98718.97;;;8.56;88.26
48027;BME280;50714;49.208;5.364;2022-11-20T19:15:26;98732.84;;;8.46;88.41
48027;BME280;50714;49.208;5.364;2022-11-20T19:25:29;98731.19;;;8.45;88.61
48027;BME280;50714;49.208;5.364;2022-11-20T19:35:30;98714.44;;;8.43;88.57
48027;BME280;50714;49.208;5.364;2022-11-20T19:45:31;98740.91;;;8.40;89.37
48027;BME280;50714;49.208;5.364;2022-11-20T19:55:31;98733.69;;;8.47;89.56
48027;BME280;50714;49.208;5.364;2022-11-20T20:05:32;98746.72;;;8.50;89.45
48027;BME280;50714;49.208;5.364;2022-11-20T20:15:33;98768.00;;;8.51;89.02
48027;BME280;50714;49.208;5.364;2022-11-20T20:25:35;98765.13;;;8.46;89.03
48027;BME280;50714;49.208;5.364;2022-11-20T20:35:40;98773.16;;;8.53;88.82
48027;BME280;50714;49.208;5.364;2022-11-20T20:45:45;98782.25;;;8.52;88.70
48027;BME280;50714;49.208;5.364;2022-11-20T20:55:57;98757.88;;;8.47;89.80
48027;BME280;50714;49.208;5.364;2022-11-20T21:05:57;98755.56;;;8.50;89.74
48027;BME280;50714;49.208;5.364;2022-11-20T21:15:58;98765.75;;;8.48;89.09
48027;BME280;50714;49.208;5.364;2022-11-20T21:26:06;98763.22;;;8.53;89.15
48027;BME280;50714;49.208;5.364;2022-11-20T21:36:10;98748.13;;;8.52;88.28
48027;BME280;50714;49.208;5.364;2022-11-20T21:46:12;98732.03;;;8.46;86.48
48027;BME280;50714;49.208;5.364;2022-11-20T21:56:14;98746.69;;;8.24;84.57
48027;BME280;50714;49.208;5.364;2022-11-20T22:06:16;98761.94;;;8.03;84.06
48027;BME280;50714;49.208;5.364;2022-11-20T22:16:16;98777.66;;;7.93;83.53
48027;BME280;50714;49.208;5.364;2022-11-20T22:26:19;98782.19;;;7.93;84.99
48027;BME280;50714;49.208;5.364;2022-11-20T22:36:25;98779.91;;;7.90;85.97
48027;BME280;50714;49.208;5.364;2022-11-20T22:46:30;98791.91;;;7.94;86.87
48027;BME280;50714;49.208;5.364;2022-11-20T22:56:31;98786.75;;;7.99;86.79
48027;BME280;50714;49.208;5.364;2022-11-20T23:06:32;98798.53;;;8.04;87.04
48027;BME280;50714;49.208;5.364;2022-11-20T23:16:35;98793.16;;;7.91;86.34
48027;BME280;50714;49.208;5.364;2022-11-20T23:26:37;98781.56;;;7.84;85.88
48027;BME280;50714;49.208;5.364;2022-11-20T23:36:38;98776.59;;;7.74;86.57
48027;BME280;50714;49.208;5.364;2022-11-20T23:46:38;98765.00;;;7.74;87.02
48027;BME280;50714;49.208;5.364;2022-11-20T23:56:38;98768.75;;;7.79;87.32
